Airfield :
LOGIN :

Register | Disclaimer

   EN    FR    IT 

 










Legend :    VFR   Marginal VFR   IFR   Intensive IFR   Very Intensive IFR
Visi :
Ceiling :
>= 8 km
>= 3000ft
5 to 8 km
1000 to 3000 ft
1500m to 5 km
500 to 1000 ft
800 to 1500m
200 to 500 ft
< 800m
< 200 ft
Symbols :   Thunderstorms  Fog  Heavy snow  Heavy precipitations  Wind > 20 kt
SIGMETs :     Misc.  Thunderstorms  Icing  Turbulence  Mountain Waves  Volcanic Ashes







- Airport Elevation : 42 ft
- IATA code : KGD


UMKK - Khrabrava - Kaliningrad

CURRENT METAR :
  • 200900Z 05004MPS CAVOK 22/15 Q1015 R06/CLRD60 NOSIG RMK QFE760/1014

EXPIRED METARs :
  • 200830Z 03004MPS CAVOK 23/15 Q1015 R06/CLRD60 NOSIG RMK QFE760/1014
  • 200800Z 04004MPS CAVOK 23/14 Q1015 R06/CLRD60 NOSIG RMK QFE760/1013
  • 200730Z 05003MPS 010V080 CAVOK 22/13 Q1015 R24/CLRD60 NOSIG RMK QFE760/1013
  • 200700Z 06003MPS CAVOK 22/13 Q1015 R24/CLRD60 NOSIG RMK QFE760/1013
  • 200630Z 07003MPS 050V110 CAVOK 21/14 Q1015 R24/CLRD60 NOSIG RMK QFE760/1013
  • 200600Z 07002MPS 040V100 CAVOK 20/15 Q1015 R24/CLRD60 NOSIG RMK QFE760/1013

TAF TAF UMKK
Valid from the 20 at 09:00 until the 21 at 09:00 UTC


200757Z 2009/2109 04003MPS 9999 SCT030
TEMPO 2009/2016 02007MPS
BECMG 2019/2021 14003MPS
BECMG 2105/2107 18005G10MPS BKN030



MET'MAP, your aeronautical weather chart ! - Copyright ORBIFLY December 2007 - Disclaimer

ORBIFLY MET'MAP TEAM :

Programming & Development : Alexandra Zaïnal
Concept & Development : Baudouin d'Aumeries
Co-Development & Prog : Marc-Olivier Méhu
Technical & hardware support : Manuel Goepfert

Contact : metmap@orbifly.com




SOURCES & CREDITS :

   NOAA